Time;durP1;ratioP1;P1;durP2;ratioP2;P2;SDS_P1;SDS_P2;PMS_P1;PMS_P2;Temp;Humidity;BMP_temperature;BMP_pressure;BME280_temperature;BME280_humidity;BME280_pressure;Samples;Min_cycle;Max_cycle;Signal;HPM_P1;HPM_P2
2022/06/10 17:41:29;;;;;;;29.05;11.55;;;;;;;25.12;36.24;100542.97;1770464;78;20950;-42
2022/06/10 17:44:06;;;;;;;24.57;8.85;;;;;;;24.65;36.93;100547.86;1769744;80;20893;-41
2022/06/10 17:46:47;;;;;;;28.05;9.75;;;;;;;24.31;37.63;100550.41;1770925;80;21027;-42
2022/06/10 17:49:26;;;;;;;23.92;10.15;;;;;;;23.99;38.92;100548.34;1776502;80;21446;-42
2022/06/10 17:52:00;;;;;;;22.05;9.10;;;;;;;23.63;41.79;100550.91;1762142;80;21715;-42
2022/06/10 17:54:27;;;;;;;33.40;10.90;;;;;;;23.32;42.36;100558.86;1768289;80;21007;-42
2022/06/10 17:56:53;;;;;;;31.40;12.70;;;;;;;23.05;41.71;100562.45;1765411;80;21416;-42
2022/06/10 17:59:30;;;;;;;39.48;15.38;;;;;;;22.81;43.66;100569.33;1774383;80;21014;-41
2022/06/10 18:01:57;;;;;;;31.10;13.22;;;;;;;22.58;44.00;100572.69;1777133;79;20936;-43
2022/06/10 18:04:24;;;;;;;34.80;14.50;;;;;;;22.32;45.78;100577.88;1768565;79;21128;-41
2022/06/10 18:06:52;;;;;;;40.25;15.23;;;;;;;22.08;47.55;100572.78;1768160;80;20960;-42
2022/06/10 18:09:19;;;;;;;45.78;14.28;;;;;;;21.87;48.67;100582.11;1772472;79;20960;-41
2022/06/10 18:11:50;;;;;;;36.42;14.73;;;;;;;21.64;49.03;100584.38;1770660;78;20977;-40
2022/06/10 18:17:02;;;;;;;39.13;10.98;;;;;;;21.24;49.88;100585.08;1761607;79;21097;-41
2022/06/10 18:19:32;;;;;;;31.82;12.20;;;;;;;21.02;49.71;100589.47;1743904;80;20930;-42
2022/06/10 18:22:00;;;;;;;35.25;11.35;;;;;;;20.86;49.46;100600.94;1781631;79;20979;-42
2022/06/10 18:24:28;;;;;;;37.88;10.70;;;;;;;20.72;49.39;100604.80;1763429;80;20873;-42
2022/06/10 18:26:57;;;;;;;31.73;10.78;;;;;;;20.57;50.16;100606.06;1778714;80;21569;-42
2022/06/10 18:29:43;;;;;;;48.63;12.45;;;;;;;20.44;48.89;100601.98;1778254;79;21224;-42
2022/06/10 18:32:22;;;;;;;25.85;9.95;;;;;;;20.35;49.25;100606.47;1761261;80;20911;-42
2022/06/10 18:34:49;;;;;;;29.80;10.08;;;;;;;20.24;49.75;100607.95;1767697;80;20968;-42
2022/06/10 18:37:17;;;;;;;46.75;10.28;;;;;;;20.12;49.70;100607.31;1758698;80;21019;-42
2022/06/10 18:39:47;;;;;;;35.40;9.80;;;;;;;20.01;50.17;100613.64;1771161;79;21553;-42
2022/06/10 18:42:18;;;;;;;34.65;11.73;;;;;;;19.92;50.96;100616.31;1762821;79;21120;-42
2022/06/10 18:44:45;;;;;;;39.60;13.35;;;;;;;19.83;50.83;100616.31;1773078;80;20889;-41
2022/06/10 18:47:19;;;;;;;67.35;29.10;;;;;;;19.73;49.82;100612.51;1764845;80;20885;-41
2022/06/10 18:49:46;;;;;;;57.58;22.00;;;;;;;19.66;50.27;100614.13;1766274;80;21499;-41
2022/06/10 18:52:14;;;;;;;36.23;13.58;;;;;;;19.62;49.56;100613.09;1761310;79;20980;-41
2022/06/10 18:54:42;;;;;;;44.05;12.00;;;;;;;19.58;48.99;100613.70;1764493;80;21154;-42
2022/06/10 18:57:12;;;;;;;36.38;11.43;;;;;;;19.57;48.59;100615.95;1759853;80;20980;-41
2022/06/10 18:59:41;;;;;;;51.23;13.53;;;;;;;19.58;48.69;100622.03;1771096;78;20952;-41
2022/06/10 19:02:24;;;;;;;37.45;12.28;;;;;;;19.59;49.00;100613.26;1756986;80;20931;-42
2022/06/10 19:04:51;;;;;;;50.23;12.33;;;;;;;19.57;49.29;100612.47;1764300;80;21185;-41
2022/06/10 19:07:22;;;;;;;47.58;11.30;;;;;;;19.56;49.37;100612.09;1767689;80;21122;-40
2022/06/10 19:09:49;;;;;;;45.75;10.75;;;;;;;19.52;49.54;100613.56;1769202;80;20965;-41
2022/06/10 19:12:17;;;;;;;31.95;10.43;;;;;;;19.48;49.61;100610.73;1766270;80;20870;-41
2022/06/10 19:14:45;;;;;;;40.70;12.35;;;;;;;19.44;49.48;100614.45;1769075;80;21599;-41
2022/06/10 19:17:30;;;;;;;36.95;11.80;;;;;;;19.41;49.56;100615.93;1767282;79;20917;-43
2022/06/10 19:20:17;;;;;;;39.07;10.80;;;;;;;19.37;50.50;100613.09;1746618;80;21243;-43
2022/06/10 19:22:44;;;;;;;36.85;10.53;;;;;;;19.30;50.52;100615.18;1765556;80;21694;-42
2022/06/10 19:25:30;;;;;;;36.38;11.85;;;;;;;19.26;50.06;100622.84;1754854;80;20882;-42
2022/06/10 19:27:57;;;;;;;38.73;11.55;;;;;;;19.23;49.61;100623.83;1753288;80;20944;-40
2022/06/10 19:30:26;;;;;;;36.50;11.00;;;;;;;19.27;49.69;100618.42;1736315;81;20952;-40
2022/06/10 19:32:56;;;;;;;31.52;10.05;;;;;;;19.33;49.86;100620.75;1756300;80;22142;-41
2022/06/10 19:35:28;;;;;;;37.00;10.65;;;;;;;19.36;51.67;100623.20;1774607;80;20964;-41
2022/06/10 19:37:57;;;;;;;27.37;8.10;;;;;;;19.32;52.17;100625.58;1774795;79;20893;-41
2022/06/10 19:40:37;;;;;;;24.15;9.95;;;;;;;19.27;52.28;100628.47;1773925;79;20897;-41
2022/06/10 19:43:08;;;;;;;27.42;11.25;;;;;;;19.24;50.46;100633.87;1768451;80;20842;-41
2022/06/10 19:45:36;;;;;;;42.48;10.48;;;;;;;19.25;51.11;100632.95;1775564;79;21494;-41
2022/06/10 19:48:24;;;;;;;22.93;9.18;;;;;;;19.23;51.11;100629.08;1766290;79;20972;-43
2022/06/10 19:50:59;;;;;;;30.27;9.20;;;;;;;19.20;52.10;100629.24;1776443;80;20968;-40
2022/06/10 19:53:29;;;;;;;33.78;10.10;;;;;;;19.13;51.71;100626.56;1764016;80;21014;-40
2022/06/10 19:56:03;;;;;;;27.05;10.23;;;;;;;19.06;50.52;100629.09;1760727;80;21105;-42
2022/06/10 19:58:34;;;;;;;22.07;11.18;;;;;;;19.03;50.92;100626.19;1755123;80;21122;-42
2022/06/10 20:01:03;;;;;;;28.87;11.33;;;;;;;19.03;50.87;100626.63;1750147;80;20920;-42
2022/06/10 20:03:36;;;;;;;23.07;11.97;;;;;;;18.98;51.03;100624.27;1776967;79;20889;-40
2022/06/10 20:06:04;;;;;;;29.15;11.22;;;;;;;18.96;50.67;100627.41;1772234;80;20968;-40
2022/06/10 20:08:33;;;;;;;26.15;10.95;;;;;;;19.01;50.08;100625.87;1768653;80;20967;-39
2022/06/10 20:11:00;;;;;;;22.48;11.97;;;;;;;19.09;49.41;100621.93;1774733;80;21127;-40
2022/06/10 20:13:27;;;;;;;25.25;11.65;;;;;;;19.18;48.99;100619.74;1776366;79;20948;-40
2022/06/10 20:16:00;;;;;;;27.07;12.65;;;;;;;19.21;48.69;100615.20;1752592;80;20919;-41
2022/06/10 20:18:33;;;;;;;28.02;12.50;;;;;;;19.23;48.46;100618.59;1739817;80;21540;-41
2022/06/10 20:21:03;;;;;;;24.95;12.88;;;;;;;19.28;48.04;100609.62;1751691;80;20986;-41
2022/06/10 20:23:34;;;;;;;30.52;15.18;;;;;;;19.29;47.99;100610.86;1755918;80;21058;-41
2022/06/10 20:26:01;;;;;;;35.80;14.40;;;;;;;19.32;47.54;100613.77;1767143;80;20925;-40
2022/06/10 20:28:27;;;;;;;34.18;13.03;;;;;;;19.36;49.04;100612.70;1736918;80;20952;-39
2022/06/10 20:30:57;;;;;;;32.08;13.43;;;;;;;19.37;53.30;100611.78;1767277;80;20941;-42
2022/06/10 20:33:27;;;;;;;25.50;13.13;;;;;;;19.29;52.37;100615.25;1746102;80;20937;-43
2022/06/10 20:35:59;;;;;;;25.50;13.25;;;;;;;19.19;55.26;100615.74;1774799;80;21166;-42
2022/06/10 20:38:26;;;;;;;30.70;12.68;;;;;;;19.03;54.17;100617.01;1776584;80;20980;-42
2022/06/10 20:40:54;;;;;;;23.57;13.35;;;;;;;18.90;57.35;100619.83;1773813;79;20991;-42
2022/06/10 20:43:23;;;;;;;27.48;13.45;;;;;;;18.76;59.35;100620.52;1770837;80;21086;-42
2022/06/10 20:45:54;;;;;;;29.52;13.58;;;;;;;18.62;60.64;100627.32;1779436;79;20987;-41
2022/06/10 20:48:35;;;;;;;30.85;15.18;;;;;;;18.49;58.38;100623.15;1774420;79;21791;-40
2022/06/10 20:51:13;;;;;;;29.87;15.08;;;;;;;18.42;57.78;100625.66;1747201;80;20965;-40
2022/06/10 20:53:40;;;;;;;28.95;13.60;;;;;;;18.32;55.51;100621.35;1775742;80;21062;-40
2022/06/10 20:56:12;;;;;;;27.07;14.13;;;;;;;18.23;55.50;100620.02;1755785;80;20913;-40
2022/06/10 20:58:39;;;;;;;32.13;15.18;;;;;;;18.16;56.88;100623.00;1763004;80;20933;-40
2022/06/10 21:01:26;;;;;;;27.93;15.08;;;;;;;18.05;56.01;100617.80;1776355;80;21042;-40
2022/06/10 21:12:12;;;;;;;30.00;15.75;;;;;;;17.81;56.31;100625.88;1798433;79;22311;-40
2022/06/10 21:14:39;;;;;;;26.68;14.50;;;;;;;17.73;56.17;100620.59;1758304;81;21410;-40
2022/06/10 21:17:12;;;;;;;24.60;14.28;;;;;;;17.69;55.82;100619.87;1758109;81;21144;-40
2022/06/10 21:19:37;;;;;;;24.43;14.13;;;;;;;17.66;58.03;100626.56;1757820;81;20972;-41
2022/06/10 21:22:03;;;;;;;30.77;14.45;;;;;;;17.62;60.20;100619.77;1757972;81;20885;-42
2022/06/10 21:24:31;;;;;;;28.30;15.10;;;;;;;17.57;60.30;100626.52;1758197;81;20881;-42
2022/06/10 21:26:58;;;;;;;29.20;14.65;;;;;;;17.52;60.56;100625.41;1758101;81;21455;-42
2022/06/10 21:29:26;;;;;;;32.83;14.83;;;;;;;17.47;59.32;100626.08;1758247;81;21319;-40
2022/06/10 21:31:55;;;;;;;30.60;14.93;;;;;;;17.42;57.94;100620.65;1758075;81;20845;-41
2022/06/10 21:34:31;;;;;;;31.57;15.38;;;;;;;17.42;58.37;100623.27;1758096;81;21015;-42
2022/06/10 21:37:00;;;;;;;35.03;16.05;;;;;;;17.40;59.31;100624.66;1758279;80;20893;-42
2022/06/10 21:39:37;;;;;;;26.82;14.33;;;;;;;17.36;59.79;100619.17;1758026;81;20928;-42
2022/06/10 21:45:03;;;;;;;28.77;13.75;;;;;;;17.35;62.81;100622.23;1749810;82;21471;-41
2022/06/10 21:47:28;;;;;;;33.78;14.63;;;;;;;17.30;63.95;100620.29;1748992;82;20885;-41
2022/06/10 21:49:56;;;;;;;27.25;14.00;;;;;;;17.26;66.29;100617.42;1749645;81;20980;-42
2022/06/10 21:52:32;;;;;;;27.40;14.28;;;;;;;17.19;67.51;100616.83;1749854;82;20936;-41
2022/06/10 21:55:01;;;;;;;;;;;;;;;17.14;68.65;100617.50;1751920;82;21277;-41
2022/06/10 21:57:33;;;;;;;28.38;14.38;;;;;;;17.09;70.62;100622.92;1749742;82;20130;-41
2022/06/10 22:00:01;;;;;;;26.33;14.87;;;;;;;17.07;71.75;100619.52;1749635;81;20853;-41
2022/06/10 22:02:30;;;;;;;28.15;14.13;;;;;;;17.02;72.30;100621.94;1749504;81;21447;-42
2022/06/10 22:04:57;;;;;;;26.17;14.55;;;;;;;17.00;73.67;100627.69;1749788;82;21003;-42
2022/06/10 22:07:25;;;;;;;35.68;15.10;;;;;;;16.95;74.14;100631.80;1749778;82;21210;-42
2022/06/10 22:09:56;;;;;;;30.65;14.78;;;;;;;16.89;74.76;100635.52;1749648;82;21474;-41
2022/06/10 22:12:32;;;;;;;28.12;14.45;;;;;;;16.85;72.42;100647.02;1736864;82;20917;-41
2022/06/10 22:15:02;;;;;;;36.88;15.10;;;;;;;16.91;67.21;100638.05;1736533;82;20992;-39
2022/06/10 22:17:30;;;;;;;26.12;15.25;;;;;;;17.21;65.17;100627.24;1736637;82;20830;-39
2022/06/10 22:20:01;;;;;;;25.25;14.05;;;;;;;17.34;63.04;100623.16;1736533;82;20981;-40
2022/06/10 22:22:31;;;;;;;28.60;15.28;;;;;;;17.39;61.42;100637.35;1736278;82;20992;-41
2022/06/10 22:24:59;;;;;;;30.97;15.48;;;;;;;17.37;61.14;100638.71;1736112;82;21104;-41
2022/06/10 22:27:27;;;;;;;28.20;15.95;;;;;;;17.38;60.43;100639.58;1736357;82;20937;-41
2022/06/10 22:29:55;;;;;;;35.80;15.03;;;;;;;17.37;60.56;100643.11;1736022;82;20913;-40
2022/06/10 22:32:25;;;;;;;34.30;14.70;;;;;;;17.38;60.26;100636.48;1735976;81;21118;-40
2022/06/10 22:34:55;;;;;;;30.40;14.85;;;;;;;17.36;59.43;100634.88;1735912;82;20972;-41
2022/06/10 22:37:29;;;;;;;28.45;15.08;;;;;;;17.32;58.89;100637.23;1736187;82;20954;-41
2022/06/10 22:39:57;;;;;;;28.57;15.28;;;;;;;17.24;59.24;100629.72;1736137;82;20941;-41
2022/06/10 22:42:24;;;;;;;31.20;15.00;;;;;;;17.14;59.92;100631.88;1735990;82;20961;-39
2022/06/10 22:44:51;;;;;;;26.77;14.75;;;;;;;17.03;60.63;100624.94;1735925;81;22183;-39
2022/06/10 22:47:24;;;;;;;38.23;15.25;;;;;;;16.93;60.16;100626.62;1736012;82;20929;-39
2022/06/10 22:49:54;;;;;;;29.48;15.70;;;;;;;16.86;61.10;100620.41;1735906;81;20972;-41
2022/06/10 22:52:25;;;;;;;28.85;14.85;;;;;;;16.77;60.25;100622.50;1735961;82;21554;-40
2022/06/10 22:54:55;;;;;;;34.43;15.90;;;;;;;16.72;60.75;100623.59;1736042;82;20949;-40
2022/06/10 22:57:26;;;;;;;30.90;15.35;;;;;;;16.62;60.57;100614.84;1736073;82;21781;-40
2022/06/10 22:59:53;;;;;;;38.13;16.23;;;;;;;16.54;60.70;100616.06;1735850;82;20898;-40
2022/06/10 23:02:24;;;;;;;33.83;15.53;;;;;;;16.44;61.23;100610.36;1735907;81;21421;-40
2022/06/10 23:07:39;;;;;;;33.75;16.07;;;;;;;16.29;60.93;100611.36;1736321;82;21033;-41
2022/06/10 23:10:33;;;;;;;35.40;15.68;;;;;;;16.24;61.96;100612.00;1735948;82;20845;-41
2022/06/10 23:13:14;;;;;;;48.33;18.20;;;;;;;16.14;61.95;100606.28;1736040;82;20917;-40
2022/06/10 23:15:50;;;;;;;37.45;16.80;;;;;;;16.05;61.45;100614.05;1736098;82;20897;-41
2022/06/10 23:18:21;;;;;;;36.68;15.63;;;;;;;16.01;61.48;100611.61;1735914;82;20922;-41
2022/06/10 23:20:50;;;;;;;45.23;18.23;;;;;;;15.95;62.36;100604.86;1736003;81;20972;-41
2022/06/10 23:23:18;;;;;;;38.17;18.02;;;;;;;15.90;62.80;100608.11;1736001;82;21134;-41
2022/06/10 23:25:46;;;;;;;37.08;17.32;;;;;;;15.84;63.01;100603.93;1735904;82;21023;-41
2022/06/10 23:28:18;;;;;;;48.33;18.52;;;;;;;15.80;63.61;100606.27;1736062;82;21348;-41
2022/06/10 23:30:52;;;;;;;46.15;17.75;;;;;;;15.76;64.03;100600.30;1735909;82;20925;-41
2022/06/10 23:33:19;;;;;;;49.42;18.50;;;;;;;15.74;64.40;100595.59;1735962;82;21442;-41
2022/06/10 23:35:46;;;;;;;41.35;17.52;;;;;;;15.69;64.01;100601.45;1736022;82;21144;-39
2022/06/10 23:38:24;;;;;;;39.98;18.10;;;;;;;15.65;64.79;100608.53;1735909;82;21495;-39
2022/06/10 23:40:55;;;;;;;43.83;18.17;;;;;;;15.63;65.25;100605.12;1735792;82;20878;-39
2022/06/10 23:43:34;;;;;;;43.75;17.55;;;;;;;15.64;64.77;100608.61;1735924;82;21407;-40
2022/06/10 23:51:44;;;;;;;37.13;17.17;;;;;;;15.62;65.69;100607.81;1736139;82;20921;-40
2022/06/10 23:54:13;;;;;;;37.93;16.77;;;;;;;15.57;65.96;100607.14;1736000;82;21506;-40
2022/06/10 23:56:41;;;;;;;33.95;18.07;;;;;;;15.52;66.76;100612.05;1735906;82;20890;-40
2022/06/10 23:59:15;;;;;;;35.65;16.87;;;;;;;15.48;66.80;100616.15;1715123;82;20930;-40
